sensor_id;sensor_type;location;lat;lon;timestamp;pressure;altitude;pressure_sealevel;temperature;humidity
71149;BME280;59072;42.144;25.200;2023-04-24T00:02:22;99950.13;;;10.01;87.52
71149;BME280;59072;42.144;25.200;2023-04-24T00:04:48;99954.88;;;10.24;86.84
71149;BME280;59072;42.144;25.200;2023-04-24T00:07:14;99964.75;;;10.17;86.97
71149;BME280;59072;42.144;25.200;2023-04-24T00:09:43;99962.44;;;10.02;87.20
71149;BME280;59072;42.144;25.200;2023-04-24T00:12:09;99959.00;;;10.20;86.12
71149;BME280;59072;42.144;25.200;2023-04-24T00:14:34;99948.47;;;10.06;86.05
71149;BME280;59072;42.144;25.200;2023-04-24T00:17:00;99948.66;;;9.80;89.04
71149;BME280;59072;42.144;25.200;2023-04-24T00:19:27;99952.25;;;9.92;88.41
71149;BME280;59072;42.144;25.200;2023-04-24T00:21:53;99950.53;;;10.04;87.96
71149;BME280;59072;42.144;25.200;2023-04-24T00:24:20;99958.03;;;10.14;87.39
71149;BME280;59072;42.144;25.200;2023-04-24T00:26:45;99953.06;;;10.43;85.67
71149;BME280;59072;42.144;25.200;2023-04-24T00:29:11;99958.13;;;10.26;86.03
71149;BME280;59072;42.144;25.200;2023-04-24T00:31:36;99958.47;;;10.36;85.20
71149;BME280;59072;42.144;25.200;2023-04-24T00:34:02;99968.69;;;10.39;84.77
71149;BME280;59072;42.144;25.200;2023-04-24T00:36:28;99968.63;;;9.71;87.95
71149;BME280;59072;42.144;25.200;2023-04-24T00:38:54;99964.81;;;9.53;89.42
71149;BME280;59072;42.144;25.200;2023-04-24T00:41:21;99955.50;;;9.69;89.21
71149;BME280;59072;42.144;25.200;2023-04-24T00:43:47;99960.31;;;9.85;88.22
71149;BME280;59072;42.144;25.200;2023-04-24T00:46:13;99951.38;;;9.41;90.29
71149;BME280;59072;42.144;25.200;2023-04-24T00:48:39;99949.47;;;9.23;93.45
71149;BME280;59072;42.144;25.200;2023-04-24T00:51:04;99932.44;;;9.24;92.05
71149;BME280;59072;42.144;25.200;2023-04-24T00:53:30;99931.19;;;9.34;92.36
71149;BME280;59072;42.144;25.200;2023-04-24T00:55:56;99944.72;;;9.57;91.60
71149;BME280;59072;42.144;25.200;2023-04-24T00:58:22;99917.00;;;9.40;92.14
71149;BME280;59072;42.144;25.200;2023-04-24T01:00:48;99941.19;;;9.38;92.13
71149;BME280;59072;42.144;25.200;2023-04-24T01:03:19;99939.19;;;9.27;93.25
71149;BME280;59072;42.144;25.200;2023-04-24T01:05:45;99937.44;;;9.46;92.00
71149;BME280;59072;42.144;25.200;2023-04-24T01:08:11;99939.22;;;9.20;92.76
71149;BME280;59072;42.144;25.200;2023-04-24T01:10:38;99928.63;;;9.07;92.27
71149;BME280;59072;42.144;25.200;2023-04-24T01:13:07;99940.31;;;9.44;91.04
71149;BME280;59072;42.144;25.200;2023-04-24T01:15:33;99943.22;;;9.36;91.53
71149;BME280;59072;42.144;25.200;2023-04-24T01:17:58;99952.63;;;9.39;91.05
71149;BME280;59072;42.144;25.200;2023-04-24T01:20:24;99946.97;;;9.29;92.18
71149;BME280;59072;42.144;25.200;2023-04-24T01:22:51;99944.38;;;9.09;92.74
71149;BME280;59072;42.144;25.200;2023-04-24T01:25:17;99920.91;;;8.99;93.18
71149;BME280;59072;42.144;25.200;2023-04-24T01:27:42;99908.31;;;8.74;93.60
71149;BME280;59072;42.144;25.200;2023-04-24T01:30:09;99941.31;;;9.05;92.81
71149;BME280;59072;42.144;25.200;2023-04-24T01:32:35;99946.75;;;8.78;93.73
71149;BME280;59072;42.144;25.200;2023-04-24T01:35:02;99944.91;;;8.85;93.90
71149;BME280;59072;42.144;25.200;2023-04-24T01:37:27;99942.66;;;8.89;93.76
71149;BME280;59072;42.144;25.200;2023-04-24T01:39:53;99944.69;;;8.80;94.10
71149;BME280;59072;42.144;25.200;2023-04-24T01:42:19;99942.28;;;8.72;95.29
71149;BME280;59072;42.144;25.200;2023-04-24T01:44:44;99937.50;;;9.33;92.88
71149;BME280;59072;42.144;25.200;2023-04-24T01:47:10;99934.28;;;9.24;91.67
71149;BME280;59072;42.144;25.200;2023-04-24T01:49:38;99932.38;;;8.93;93.39
71149;BME280;59072;42.144;25.200;2023-04-24T01:52:03;99929.47;;;9.08;92.93
71149;BME280;59072;42.144;25.200;2023-04-24T01:54:28;99935.53;;;9.21;91.91
71149;BME280;59072;42.144;25.200;2023-04-24T01:56:54;99939.34;;;9.71;90.29
71149;BME280;59072;42.144;25.200;2023-04-24T01:59:20;99949.66;;;9.60;89.84
71149;BME280;59072;42.144;25.200;2023-04-24T02:01:45;99937.59;;;9.51;87.58
71149;BME280;59072;42.144;25.200;2023-04-24T02:04:11;99963.94;;;8.82;91.84
71149;BME280;59072;42.144;25.200;2023-04-24T02:06:36;99946.28;;;8.95;90.70
71149;BME280;59072;42.144;25.200;2023-04-24T02:09:02;99956.91;;;9.01;91.14
71149;BME280;59072;42.144;25.200;2023-04-24T02:11:28;99949.25;;;9.18;89.24
71149;BME280;59072;42.144;25.200;2023-04-24T02:13:54;99935.00;;;9.06;89.79
71149;BME280;59072;42.144;25.200;2023-04-24T02:16:19;99947.50;;;8.99;89.22
71149;BME280;59072;42.144;25.200;2023-04-24T02:18:45;99951.19;;;8.98;89.55
71149;BME280;59072;42.144;25.200;2023-04-24T02:21:10;99958.63;;;8.76;90.79
71149;BME280;59072;42.144;25.200;2023-04-24T02:23:36;99959.03;;;8.79;90.47
71149;BME280;59072;42.144;25.200;2023-04-24T02:26:01;99956.78;;;8.83;90.89
71149;BME280;59072;42.144;25.200;2023-04-24T02:28:27;99956.06;;;9.01;90.54
71149;BME280;59072;42.144;25.200;2023-04-24T02:30:53;99926.41;;;9.04;90.03
71149;BME280;59072;42.144;25.200;2023-04-24T02:33:18;99944.78;;;8.60;92.88
71149;BME280;59072;42.144;25.200;2023-04-24T02:35:44;99947.88;;;7.84;94.83
71149;BME280;59072;42.144;25.200;2023-04-24T02:38:09;99935.63;;;7.96;94.14
71149;BME280;59072;42.144;25.200;2023-04-24T02:40:34;99951.34;;;7.51;95.98
71149;BME280;59072;42.144;25.200;2023-04-24T02:43:00;99949.94;;;7.69;94.92
71149;BME280;59072;42.144;25.200;2023-04-24T02:45:25;99933.78;;;7.50;96.40
71149;BME280;59072;42.144;25.200;2023-04-24T02:47:51;99928.81;;;7.20;98.56
71149;BME280;59072;42.144;25.200;2023-04-24T02:50:16;99940.53;;;6.84;100.00
71149;BME280;59072;42.144;25.200;2023-04-24T02:52:42;99938.56;;;6.58;100.00
71149;BME280;59072;42.144;25.200;2023-04-24T02:55:07;99951.22;;;6.63;100.00
71149;BME280;59072;42.144;25.200;2023-04-24T02:57:33;99934.44;;;6.91;100.00
71149;BME280;59072;42.144;25.200;2023-04-24T02:59:59;99921.47;;;7.22;100.00
71149;BME280;59072;42.144;25.200;2023-04-24T03:02:24;99937.38;;;7.16;100.00
71149;BME280;59072;42.144;25.200;2023-04-24T03:04:50;99930.59;;;7.07;100.00
71149;BME280;59072;42.144;25.200;2023-04-24T03:07:15;99926.94;;;7.08;100.00
71149;BME280;59072;42.144;25.200;2023-04-24T03:09:41;99923.22;;;6.89;100.00
71149;BME280;59072;42.144;25.200;2023-04-24T03:12:06;99923.38;;;6.80;100.00
71149;BME280;59072;42.144;25.200;2023-04-24T03:14:32;99925.53;;;6.63;100.00
71149;BME280;59072;42.144;25.200;2023-04-24T03:16:58;99919.78;;;6.53;100.00
71149;BME280;59072;42.144;25.200;2023-04-24T03:19:24;99914.97;;;6.35;100.00
71149;BME280;59072;42.144;25.200;2023-04-24T03:21:50;99912.13;;;6.30;100.00
71149;BME280;59072;42.144;25.200;2023-04-24T03:24:15;99908.38;;;6.18;100.00
71149;BME280;59072;42.144;25.200;2023-04-24T03:26:41;99922.13;;;6.35;100.00
71149;BME280;59072;42.144;25.200;2023-04-24T03:29:07;99915.06;;;6.49;100.00
71149;BME280;59072;42.144;25.200;2023-04-24T03:31:32;99919.56;;;6.48;100.00
71149;BME280;59072;42.144;25.200;2023-04-24T03:33:58;99917.81;;;6.62;100.00
71149;BME280;59072;42.144;25.200;2023-04-24T03:36:23;99930.81;;;6.57;100.00
71149;BME280;59072;42.144;25.200;2023-04-24T03:38:48;99931.09;;;6.75;100.00
71149;BME280;59072;42.144;25.200;2023-04-24T03:41:14;99946.34;;;6.67;100.00
71149;BME280;59072;42.144;25.200;2023-04-24T03:43:40;99933.84;;;6.54;100.00
71149;BME280;59072;42.144;25.200;2023-04-24T03:46:05;99920.94;;;6.79;100.00
71149;BME280;59072;42.144;25.200;2023-04-24T03:48:31;99939.84;;;7.17;100.00
71149;BME280;59072;42.144;25.200;2023-04-24T03:50:56;99940.19;;;7.01;100.00
71149;BME280;59072;42.144;25.200;2023-04-24T03:53:21;99948.94;;;6.95;100.00
71149;BME280;59072;42.144;25.200;2023-04-24T03:55:47;99937.22;;;6.76;100.00
71149;BME280;59072;42.144;25.200;2023-04-24T03:58:12;99949.91;;;6.80;100.00
71149;BME280;59072;42.144;25.200;2023-04-24T04:00:41;99949.50;;;6.90;100.00
71149;BME280;59072;42.144;25.200;2023-04-24T04:03:06;99951.88;;;6.72;100.00
71149;BME280;59072;42.144;25.200;2023-04-24T04:05:31;99957.41;;;6.70;100.00
71149;BME280;59072;42.144;25.200;2023-04-24T04:07:57;99948.91;;;6.53;100.00
71149;BME280;59072;42.144;25.200;2023-04-24T04:10:22;99960.56;;;6.59;100.00
71149;BME280;59072;42.144;25.200;2023-04-24T04:12:48;99959.47;;;7.36;100.00
71149;BME280;59072;42.144;25.200;2023-04-24T04:15:13;99952.97;;;7.59;100.00
71149;BME280;59072;42.144;25.200;2023-04-24T04:17:39;99975.06;;;7.99;100.00
71149;BME280;59072;42.144;25.200;2023-04-24T04:20:05;99985.28;;;8.29;100.00
71149;BME280;59072;42.144;25.200;2023-04-24T04:22:39;99985.66;;;8.39;100.00
71149;BME280;59072;42.144;25.200;2023-04-24T04:25:05;99986.09;;;8.36;100.00
71149;BME280;59072;42.144;25.200;2023-04-24T04:27:32;99985.09;;;8.24;100.00
71149;BME280;59072;42.144;25.200;2023-04-24T04:30:01;99987.75;;;8.17;100.00
71149;BME280;59072;42.144;25.200;2023-04-24T04:32:31;99981.59;;;8.30;100.00
71149;BME280;59072;42.144;25.200;2023-04-24T04:34:58;99980.38;;;8.33;100.00
71149;BME280;59072;42.144;25.200;2023-04-24T04:37:27;99980.41;;;8.46;100.00
71149;BME280;59072;42.144;25.200;2023-04-24T04:39:53;99971.75;;;8.71;100.00
71149;BME280;59072;42.144;25.200;2023-04-24T04:42:19;99967.94;;;9.05;100.00
71149;BME280;59072;42.144;25.200;2023-04-24T04:44:45;99981.06;;;9.00;100.00
71149;BME280;59072;42.144;25.200;2023-04-24T04:47:11;99979.34;;;9.19;100.00
71149;BME280;59072;42.144;25.200;2023-04-24T04:49:37;99980.91;;;9.33;100.00
71149;BME280;59072;42.144;25.200;2023-04-24T04:52:03;99983.72;;;9.45;100.00
71149;BME280;59072;42.144;25.200;2023-04-24T04:54:29;99991.81;;;9.63;99.95
71149;BME280;59072;42.144;25.200;2023-04-24T04:56:54;99990.53;;;9.73;100.00
71149;BME280;59072;42.144;25.200;2023-04-24T04:59:20;99991.19;;;9.93;100.00
71149;BME280;59072;42.144;25.200;2023-04-24T05:01:46;99988.34;;;10.13;99.79
71149;BME280;59072;42.144;25.200;2023-04-24T05:04:11;99993.13;;;10.36;98.38
71149;BME280;59072;42.144;25.200;2023-04-24T05:06:37;99989.88;;;10.34;98.43
71149;BME280;59072;42.144;25.200;2023-04-24T05:09:02;99993.25;;;10.67;96.48
71149;BME280;59072;42.144;25.200;2023-04-24T05:11:28;99971.94;;;10.41;95.62
71149;BME280;59072;42.144;25.200;2023-04-24T05:13:54;99978.53;;;10.39;97.53
71149;BME280;59072;42.144;25.200;2023-04-24T05:16:20;99987.38;;;10.58;94.74
71149;BME280;59072;42.144;25.200;2023-04-24T05:18:45;99969.59;;;10.26;94.60
71149;BME280;59072;42.144;25.200;2023-04-24T05:21:11;99968.25;;;10.42;94.37
71149;BME280;59072;42.144;25.200;2023-04-24T05:23:36;99978.66;;;10.69;94.54
71149;BME280;59072;42.144;25.200;2023-04-24T05:26:02;99981.16;;;10.82;92.15
71149;BME280;59072;42.144;25.200;2023-04-24T05:28:27;99986.94;;;11.16;90.00
71149;BME280;59072;42.144;25.200;2023-04-24T05:30:56;99987.09;;;10.66;90.88
71149;BME280;59072;42.144;25.200;2023-04-24T05:33:21;99974.13;;;10.26;92.43
71149;BME280;59072;42.144;25.200;2023-04-24T05:35:48;99990.31;;;10.93;90.43
71149;BME280;59072;42.144;25.200;2023-04-24T05:38:13;99982.00;;;10.83;89.93
71149;BME280;59072;42.144;25.200;2023-04-24T05:40:39;99984.56;;;10.53;91.80
71149;BME280;59072;42.144;25.200;2023-04-24T05:43:05;99986.13;;;10.60;92.83
71149;BME280;59072;42.144;25.200;2023-04-24T05:45:30;99973.81;;;10.59;94.39
71149;BME280;59072;42.144;25.200;2023-04-24T05:47:56;99966.50;;;10.92;91.70
71149;BME280;59072;42.144;25.200;2023-04-24T05:50:22;99974.63;;;10.97;91.95
71149;BME280;59072;42.144;25.200;2023-04-24T05:52:48;99965.00;;;11.14;93.33
71149;BME280;59072;42.144;25.200;2023-04-24T05:55:13;99977.75;;;11.12;92.74
71149;BME280;59072;42.144;25.200;2023-04-24T05:57:38;99965.44;;;11.11;96.43
71149;BME280;59072;42.144;25.200;2023-04-24T06:00:05;99972.69;;;11.22;92.93
71149;BME280;59072;42.144;25.200;2023-04-24T06:02:30;99970.34;;;11.14;93.75
71149;BME280;59072;42.144;25.200;2023-04-24T06:04:58;99970.34;;;11.14;93.76
71149;BME280;59072;42.144;25.200;2023-04-24T06:07:25;99975.16;;;11.36;92.57
71149;BME280;59072;42.144;25.200;2023-04-24T06:09:53;99975.03;;;11.31;91.79
71149;BME280;59072;42.144;25.200;2023-04-24T06:12:18;99970.41;;;11.38;91.54
71149;BME280;59072;42.144;25.200;2023-04-24T06:14:44;99973.09;;;11.38;91.85
71149;BME280;59072;42.144;25.200;2023-04-24T06:17:09;99969.88;;;11.48;93.58
71149;BME280;59072;42.144;25.200;2023-04-24T06:19:35;99968.53;;;11.26;93.34
71149;BME280;59072;42.144;25.200;2023-04-24T06:22:00;99960.47;;;11.45;92.96
71149;BME280;59072;42.144;25.200;2023-04-24T06:24:29;99956.94;;;11.63;94.35
71149;BME280;59072;42.144;25.200;2023-04-24T06:26:54;99949.94;;;11.92;90.07
71149;BME280;59072;42.144;25.200;2023-04-24T06:29:21;99959.78;;;11.50;93.14
71149;BME280;59072;42.144;25.200;2023-04-24T06:31:47;99952.47;;;11.87;93.37
71149;BME280;59072;42.144;25.200;2023-04-24T06:34:12;99955.66;;;12.08;91.08
71149;BME280;59072;42.144;25.200;2023-04-24T06:36:38;99963.66;;;12.31;90.89
71149;BME280;59072;42.144;25.200;2023-04-24T06:39:03;99955.53;;;12.26;90.37
71149;BME280;59072;42.144;25.200;2023-04-24T06:41:29;99942.94;;;12.62;88.65
71149;BME280;59072;42.144;25.200;2023-04-24T06:43:55;99952.50;;;13.10;88.33
71149;BME280;59072;42.144;25.200;2023-04-24T06:46:21;99955.91;;;12.94;88.79
71149;BME280;59072;42.144;25.200;2023-04-24T06:48:54;99964.78;;;12.82;86.80
71149;BME280;59072;42.144;25.200;2023-04-24T06:51:23;99955.63;;;13.07;86.30
71149;BME280;59072;42.144;25.200;2023-04-24T06:53:49;99962.22;;;12.88;89.14
71149;BME280;59072;42.144;25.200;2023-04-24T06:56:15;99960.22;;;12.83;88.18
71149;BME280;59072;42.144;25.200;2023-04-24T06:58:40;99963.66;;;13.07;88.41
71149;BME280;59072;42.144;25.200;2023-04-24T07:01:06;99964.63;;;13.01;87.00
71149;BME280;59072;42.144;25.200;2023-04-24T07:03:32;99960.16;;;13.18;90.12
71149;BME280;59072;42.144;25.200;2023-04-24T07:05:57;99958.25;;;13.76;87.77
71149;BME280;59072;42.144;25.200;2023-04-24T07:08:23;99955.28;;;14.06;85.53
71149;BME280;59072;42.144;25.200;2023-04-24T07:10:49;99954.38;;;14.01;82.80
71149;BME280;59072;42.144;25.200;2023-04-24T07:13:16;99956.78;;;14.19;84.75
71149;BME280;59072;42.144;25.200;2023-04-24T07:15:42;99955.63;;;14.32;84.83
71149;BME280;59072;42.144;25.200;2023-04-24T07:18:07;99963.59;;;14.44;82.83
71149;BME280;59072;42.144;25.200;2023-04-24T07:20:33;99950.13;;;14.05;84.22
71149;BME280;59072;42.144;25.200;2023-04-24T07:22:59;99947.88;;;13.80;87.37
71149;BME280;59072;42.144;25.200;2023-04-24T07:25:24;99949.81;;;14.01;86.85
71149;BME280;59072;42.144;25.200;2023-04-24T07:27:50;99952.44;;;13.96;85.45
71149;BME280;59072;42.144;25.200;2023-04-24T07:30:16;99952.59;;;14.06;85.86
71149;BME280;59072;42.144;25.200;2023-04-24T07:32:41;99950.28;;;13.64;86.75
71149;BME280;59072;42.144;25.200;2023-04-24T07:35:07;99948.97;;;13.50;86.99
71149;BME280;59072;42.144;25.200;2023-04-24T07:37:34;99953.00;;;13.36;89.52
71149;BME280;59072;42.144;25.200;2023-04-24T07:40:00;99952.59;;;13.44;87.65
71149;BME280;59072;42.144;25.200;2023-04-24T07:42:25;99951.25;;;13.58;89.68
71149;BME280;59072;42.144;25.200;2023-04-24T07:44:51;99945.66;;;13.60;88.35
71149;BME280;59072;42.144;25.200;2023-04-24T07:47:16;99944.78;;;14.05;89.10
71149;BME280;59072;42.144;25.200;2023-04-24T07:49:42;99952.13;;;14.49;85.47
71149;BME280;59072;42.144;25.200;2023-04-24T07:52:08;99957.38;;;14.77;84.04
71149;BME280;59072;42.144;25.200;2023-04-24T07:54:33;99944.88;;;15.37;84.55
71149;BME280;59072;42.144;25.200;2023-04-24T07:56:58;99958.97;;;15.77;81.65
71149;BME280;59072;42.144;25.200;2023-04-24T07:59:25;99956.50;;;15.43;79.88
71149;BME280;59072;42.144;25.200;2023-04-24T08:01:50;99966.84;;;15.07;80.32
71149;BME280;59072;42.144;25.200;2023-04-24T08:04:16;99961.56;;;15.66;77.82
71149;BME280;59072;42.144;25.200;2023-04-24T08:06:43;99965.75;;;15.79;77.03
71149;BME280;59072;42.144;25.200;2023-04-24T08:09:08;99946.81;;;16.01;76.63
71149;BME280;59072;42.144;25.200;2023-04-24T08:11:34;99952.41;;;16.32;78.27
71149;BME280;59072;42.144;25.200;2023-04-24T08:13:59;99957.16;;;16.57;73.16
71149;BME280;59072;42.144;25.200;2023-04-24T08:16:25;99957.56;;;16.92;73.00
71149;BME280;59072;42.144;25.200;2023-04-24T08:18:51;99960.28;;;16.92;70.27
71149;BME280;59072;42.144;25.200;2023-04-24T08:21:18;99963.75;;;16.82;68.94
71149;BME280;59072;42.144;25.200;2023-04-24T08:23:44;99964.16;;;17.16;69.50
71149;BME280;59072;42.144;25.200;2023-04-24T08:26:11;99962.63;;;17.66;67.44
71149;BME280;59072;42.144;25.200;2023-04-24T08:28:37;99953.41;;;17.26;65.91
71149;BME280;59072;42.144;25.200;2023-04-24T08:31:02;99953.41;;;17.42;67.71
71149;BME280;59072;42.144;25.200;2023-04-24T08:33:28;99937.28;;;17.57;68.92
71149;BME280;59072;42.144;25.200;2023-04-24T08:36:00;99916.25;;;17.70;68.38
71149;BME280;59072;42.144;25.200;2023-04-24T08:38:26;99936.19;;;17.53;68.42
71149;BME280;59072;42.144;25.200;2023-04-24T08:40:51;99922.72;;;17.63;66.28
71149;BME280;59072;42.144;25.200;2023-04-24T08:43:17;99918.41;;;17.73;65.37
71149;BME280;59072;42.144;25.200;2023-04-24T08:45:43;99920.00;;;17.33;65.10
71149;BME280;59072;42.144;25.200;2023-04-24T08:48:09;99907.31;;;17.48;67.99
71149;BME280;59072;42.144;25.200;2023-04-24T08:50:35;99898.97;;;17.71;67.32
71149;BME280;59072;42.144;25.200;2023-04-24T08:53:02;99904.66;;;18.00;64.21
71149;BME280;59072;42.144;25.200;2023-04-24T08:55:29;99891.44;;;17.83;66.43
71149;BME280;59072;42.144;25.200;2023-04-24T08:57:55;99888.75;;;17.98;62.94
71149;BME280;59072;42.144;25.200;2023-04-24T09:00:21;99896.28;;;17.81;63.03
71149;BME280;59072;42.144;25.200;2023-04-24T09:02:49;99894.63;;;18.16;62.74
71149;BME280;59072;42.144;25.200;2023-04-24T09:05:17;99874.63;;;18.32;65.49
71149;BME280;59072;42.144;25.200;2023-04-24T09:07:45;99873.16;;;18.60;60.21
71149;BME280;59072;42.144;25.200;2023-04-24T09:10:15;99889.91;;;18.67;57.28
71149;BME280;59072;42.144;25.200;2023-04-24T09:12:41;99880.75;;;19.13;58.97
71149;BME280;59072;42.144;25.200;2023-04-24T09:15:08;99877.72;;;18.80;59.82
71149;BME280;59072;42.144;25.200;2023-04-24T09:17:33;99877.13;;;19.33;57.63
71149;BME280;59072;42.144;25.200;2023-04-24T09:20:00;99884.91;;;19.40;57.20
71149;BME280;59072;42.144;25.200;2023-04-24T09:22:29;99863.03;;;19.36;55.66
71149;BME280;59072;42.144;25.200;2023-04-24T09:25:06;99857.06;;;19.39;57.21
71149;BME280;59072;42.144;25.200;2023-04-24T09:27:33;99867.84;;;19.79;54.82
71149;BME280;59072;42.144;25.200;2023-04-24T09:29:59;99865.00;;;19.25;48.83
71149;BME280;59072;42.144;25.200;2023-04-24T09:32:26;99849.19;;;19.77;53.65
71149;BME280;59072;42.144;25.200;2023-04-24T09:35:13;99862.06;;;19.91;54.41
71149;BME280;59072;42.144;25.200;2023-04-24T09:37:43;99852.41;;;19.79;53.46
71149;BME280;59072;42.144;25.200;2023-04-24T09:40:15;99846.19;;;19.79;51.34
71149;BME280;59072;42.144;25.200;2023-04-24T09:42:45;99854.28;;;20.32;48.88
71149;BME280;59072;42.144;25.200;2023-04-24T09:45:12;99847.72;;;20.81;47.91
71149;BME280;59072;42.144;25.200;2023-04-24T09:47:38;99841.50;;;21.00;47.27
71149;BME280;59072;42.144;25.200;2023-04-24T09:50:15;99844.09;;;20.24;50.15
71149;BME280;59072;42.144;25.200;2023-04-24T09:52:45;99841.59;;;20.52;52.45
71149;BME280;59072;42.144;25.200;2023-04-24T09:55:20;99841.41;;;20.86;48.88
71149;BME280;59072;42.144;25.200;2023-04-24T10:00:29;99842.53;;;20.85;46.30
71149;BME280;59072;42.144;25.200;2023-04-24T10:05:27;99832.78;;;21.03;48.51
71149;BME280;59072;42.144;25.200;2023-04-24T10:07:57;99817.56;;;21.07;49.18
71149;BME280;59072;42.144;25.200;2023-04-24T10:10:22;99817.50;;;21.45;49.53
71149;BME280;59072;42.144;25.200;2023-04-24T10:12:48;99821.69;;;21.37;47.36
71149;BME280;59072;42.144;25.200;2023-04-24T10:15:16;99822.50;;;21.71;47.33
71149;BME280;59072;42.144;25.200;2023-04-24T10:17:47;99815.59;;;22.20;44.14
71149;BME280;59072;42.144;25.200;2023-04-24T10:20:18;99806.09;;;21.76;45.44
71149;BME280;59072;42.144;25.200;2023-04-24T10:22:46;99804.94;;;22.10;45.66
71149;BME280;59072;42.144;25.200;2023-04-24T10:25:16;99795.38;;;21.84;43.71
71149;BME280;59072;42.144;25.200;2023-04-24T10:27:43;99806.13;;;22.03;45.43
71149;BME280;59072;42.144;25.200;2023-04-24T10:30:11;99793.75;;;21.83;46.16
71149;BME280;59072;42.144;25.200;2023-04-24T10:32:37;99803.72;;;22.43;44.09
71149;BME280;59072;42.144;25.200;2023-04-24T10:35:03;99803.81;;;22.52;42.83
71149;BME280;59072;42.144;25.200;2023-04-24T10:37:35;99797.09;;;22.50;45.19
71149;BME280;59072;42.144;25.200;2023-04-24T10:40:02;99805.44;;;22.39;42.24
71149;BME280;59072;42.144;25.200;2023-04-24T10:42:27;99801.91;;;22.25;46.54
71149;BME280;59072;42.144;25.200;2023-04-24T10:44:53;99797.09;;;22.50;42.83
71149;BME280;59072;42.144;25.200;2023-04-24T10:47:19;99794.28;;;23.00;42.69
71149;BME280;59072;42.144;25.200;2023-04-24T10:49:45;99801.09;;;22.89;42.91
71149;BME280;59072;42.144;25.200;2023-04-24T10:52:10;99795.53;;;22.94;45.53
71149;BME280;59072;42.144;25.200;2023-04-24T10:54:47;99796.56;;;23.20;41.07
71149;BME280;59072;42.144;25.200;2023-04-24T10:59:49;99798.22;;;23.84;41.62
71149;BME280;59072;42.144;25.200;2023-04-24T11:02:15;99790.84;;;23.31;41.36
71149;BME280;59072;42.144;25.200;2023-04-24T11:04:41;99788.44;;;23.06;42.35
71149;BME280;59072;42.144;25.200;2023-04-24T11:07:09;99783.34;;;23.27;41.62
71149;BME280;59072;42.144;25.200;2023-04-24T11:09:35;99780.56;;;23.50;43.57
71149;BME280;59072;42.144;25.200;2023-04-24T11:12:08;99779.72;;;22.96;41.28
71149;BME280;59072;42.144;25.200;2023-04-24T11:17:37;99765.38;;;23.26;41.05
71149;BME280;59072;42.144;25.200;2023-04-24T11:20:16;99760.06;;;23.44;39.99
71149;BME280;59072;42.144;25.200;2023-04-24T11:22:42;99751.69;;;24.12;40.45
71149;BME280;59072;42.144;25.200;2023-04-24T11:25:08;99744.59;;;23.62;40.10
71149;BME280;59072;42.144;25.200;2023-04-24T11:27:42;99727.94;;;24.03;38.52
71149;BME280;59072;42.144;25.200;2023-04-24T11:30:09;99736.94;;;24.13;38.61
71149;BME280;59072;42.144;25.200;2023-04-24T11:32:37;99715.13;;;23.95;39.57
71149;BME280;59072;42.144;25.200;2023-04-24T11:35:06;99733.13;;;24.31;37.92
71149;BME280;59072;42.144;25.200;2023-04-24T11:37:40;99727.59;;;23.96;38.23
71149;BME280;59072;42.144;25.200;2023-04-24T11:40:11;99698.94;;;23.99;38.96
71149;BME280;59072;42.144;25.200;2023-04-24T11:42:44;99717.25;;;24.16;38.74
71149;BME280;59072;42.144;25.200;2023-04-24T11:45:12;99708.94;;;24.30;37.90
71149;BME280;59072;42.144;25.200;2023-04-24T11:47:38;99718.41;;;24.50;37.19
71149;BME280;59072;42.144;25.200;2023-04-24T11:50:05;99704.75;;;24.84;35.72
71149;BME280;59072;42.144;25.200;2023-04-24T11:52:33;99692.09;;;24.71;36.23
71149;BME280;59072;42.144;25.200;2023-04-24T11:55:01;99705.84;;;24.14;39.00
71149;BME280;59072;42.144;25.200;2023-04-24T11:57:27;99702.03;;;24.32;38.38
71149;BME280;59072;42.144;25.200;2023-04-24T11:59:58;99703.81;;;24.63;37.71
71149;BME280;59072;42.144;25.200;2023-04-24T12:02:24;99697.56;;;24.71;36.23
71149;BME280;59072;42.144;25.200;2023-04-24T12:04:52;99683.09;;;24.88;37.75
71149;BME280;59072;42.144;25.200;2023-04-24T12:07:17;99674.56;;;24.98;37.08
71149;BME280;59072;42.144;25.200;2023-04-24T12:09:49;99671.41;;;24.70;37.23
71149;BME280;59072;42.144;25.200;2023-04-24T12:12:16;99651.38;;;24.66;37.80
71149;BME280;59072;42.144;25.200;2023-04-24T12:14:49;99664.88;;;25.27;35.74
71149;BME280;59072;42.144;25.200;2023-04-24T12:17:41;99649.16;;;25.24;38.32
71149;BME280;59072;42.144;25.200;2023-04-24T12:20:08;99651.13;;;25.83;37.65
71149;BME280;59072;42.144;25.200;2023-04-24T12:23:02;99643.13;;;25.99;36.96
71149;BME280;59072;42.144;25.200;2023-04-24T12:25:29;99642.09;;;25.91;37.01
71149;BME280;59072;42.144;25.200;2023-04-24T12:30:32;99636.69;;;25.05;36.05
71149;BME280;59072;42.144;25.200;2023-04-24T12:32:58;99625.72;;;25.14;38.36
71149;BME280;59072;42.144;25.200;2023-04-24T12:35:27;99621.34;;;25.31;36.73
71149;BME280;59072;42.144;25.200;2023-04-24T12:37:53;99620.03;;;25.37;37.60
71149;BME280;59072;42.144;25.200;2023-04-24T12:40:21;99600.78;;;24.95;37.69
71149;BME280;59072;42.144;25.200;2023-04-24T12:42:50;99616.81;;;25.94;37.66
71149;BME280;59072;42.144;25.200;2023-04-24T12:45:17;99586.44;;;25.75;37.40
71149;BME280;59072;42.144;25.200;2023-04-24T12:47:44;99604.34;;;25.34;38.63
71149;BME280;59072;42.144;25.200;2023-04-24T12:50:11;99602.72;;;25.62;36.65
71149;BME280;59072;42.144;25.200;2023-04-24T12:52:37;99587.16;;;25.84;36.79
71149;BME280;59072;42.144;25.200;2023-04-24T12:55:04;99594.03;;;26.11;36.53
71149;BME280;59072;42.144;25.200;2023-04-24T12:57:33;99583.59;;;24.94;37.41
71149;BME280;59072;42.144;25.200;2023-04-24T13:00:00;99568.09;;;24.77;39.50
71149;BME280;59072;42.144;25.200;2023-04-24T13:02:27;99566.13;;;23.96;40.88
71149;BME280;59072;42.144;25.200;2023-04-24T13:04:54;99559.56;;;23.97;40.64